createdAt,value
2018-08-24T00:01:02.906Z,98428.67
2018-08-24T00:03:31.500Z,98425.55
2018-08-24T00:06:00.094Z,98424.91
2018-08-24T00:08:29.211Z,98427.16
2018-08-24T00:10:57.805Z,98425.09
2018-08-24T00:13:26.379Z,98424.20
2018-08-24T00:15:55.149Z,98424.41
2018-08-24T00:18:23.689Z,98421.00
2018-08-24T00:20:52.217Z,98426.65
2018-08-24T00:23:21.380Z,98430.17
2018-08-24T00:25:49.912Z,98432.33
2018-08-24T00:28:18.474Z,98434.54
2018-08-24T00:30:46.973Z,98430.63
2018-08-24T00:33:15.523Z,98429.09
2018-08-24T00:35:44.047Z,98423.89
2018-08-24T00:38:12.604Z,98421.38
2018-08-24T00:40:41.128Z,98416.77
2018-08-24T00:43:09.909Z,98409.95
2018-08-24T00:45:38.411Z,98410.80
2018-08-24T00:48:06.981Z,98406.48
2018-08-24T00:50:35.499Z,98409.25
2018-08-24T00:53:04.289Z,98410.50
2018-08-24T00:55:32.813Z,98406.07
2018-08-24T00:58:01.367Z,98416.30
2018-08-24T01:00:35.139Z,98415.41
2018-08-24T01:03:04.066Z,98418.48
2018-08-24T01:05:32.607Z,98418.08
2018-08-24T01:08:06.410Z,98422.86
2018-08-24T01:10:35.346Z,98425.48
2018-08-24T01:13:03.982Z,98427.70
2018-08-24T01:15:43.682Z,98431.33
2018-08-24T01:18:16.712Z,98438.08
2018-08-24T01:20:50.373Z,98434.41
2018-08-24T01:23:22.122Z,98424.17
2018-08-24T01:25:50.637Z,98426.39
2018-08-24T01:28:20.158Z,98421.86
2018-08-24T01:30:48.743Z,98426.58
2018-08-24T01:33:17.887Z,98416.02
2018-08-24T01:35:47.152Z,98415.51
2018-08-24T01:38:16.034Z,98416.15
2018-08-24T01:40:44.585Z,98421.16
2018-08-24T01:43:13.126Z,98415.39
2018-08-24T01:45:41.658Z,98414.58
2018-08-24T01:48:10.522Z,98413.34
2018-08-24T01:50:39.088Z,98420.91
2018-08-24T01:53:07.892Z,98420.22
2018-08-24T01:55:36.918Z,98417.33
2018-08-24T01:58:05.835Z,98408.84
2018-08-24T02:00:34.784Z,98402.78
2018-08-24T02:03:03.345Z,98410.25
2018-08-24T02:05:32.365Z,98408.81
2018-08-24T02:08:00.929Z,98406.47
2018-08-24T02:10:29.882Z,98409.26
2018-08-24T02:13:03.591Z,98408.67
2018-08-24T02:15:32.132Z,98406.56
2018-08-24T02:18:05.833Z,98407.68
2018-08-24T02:20:39.886Z,98410.61
2018-08-24T02:23:13.847Z,98417.01
2018-08-24T02:25:43.646Z,98411.47
2018-08-24T02:28:12.910Z,98407.80
2018-08-24T02:30:41.862Z,98403.74
2018-08-24T02:33:10.378Z,98412.47
2018-08-24T02:35:38.907Z,98404.27
2018-08-24T02:38:07.440Z,98408.52
2018-08-24T02:40:36.030Z,98402.05
2018-08-24T02:43:04.875Z,98411.30
2018-08-24T02:45:33.452Z,98401.01
2018-08-24T02:48:01.985Z,98405.83
2018-08-24T02:50:30.541Z,98399.95
2018-08-24T02:52:59.090Z,98400.49
2018-08-24T02:55:27.633Z,98403.08
2018-08-24T02:57:56.157Z,98397.98
2018-08-24T03:00:24.950Z,98402.02
2018-08-24T03:02:53.483Z,98402.85
2018-08-24T03:05:22.212Z,98401.38
2018-08-24T03:07:50.668Z,98401.63
2018-08-24T03:10:19.232Z,98399.58
2018-08-24T03:12:47.768Z,98407.27
2018-08-24T03:15:17.267Z,98403.69
2018-08-24T03:17:50.863Z,98411.17
2018-08-24T03:20:19.464Z,98404.12
2018-08-24T03:22:48.014Z,98404.40
2018-08-24T03:25:16.914Z,98401.98
2018-08-24T03:27:45.434Z,98396.00
2018-08-24T03:30:13.966Z,98397.72
2018-08-24T03:32:43.137Z,98398.13
2018-08-24T03:35:11.692Z,98389.59
2018-08-24T03:37:40.273Z,98391.45
2018-08-24T03:40:08.850Z,98393.89
2018-08-24T03:42:37.480Z,98399.44
2018-08-24T03:45:06.081Z,98394.33
2018-08-24T03:47:34.962Z,98394.02
2018-08-24T03:50:03.564Z,98401.27
2018-08-24T03:52:32.356Z,98398.10
2018-08-24T03:55:00.887Z,98393.20
2018-08-24T03:57:29.425Z,98397.36
2018-08-24T03:59:57.988Z,98404.02
2018-08-24T04:02:26.496Z,98406.04
2018-08-24T04:04:55.031Z,98402.20
2018-08-24T04:07:25.287Z,98411.08
2018-08-24T04:09:54.140Z,98407.82
2018-08-24T04:12:22.661Z,98408.34
2018-08-24T04:14:51.208Z,98417.76
2018-08-24T04:17:25.786Z,98418.91
2018-08-24T04:19:54.753Z,98417.17
2018-08-24T04:22:23.279Z,98424.81
2018-08-24T04:24:52.093Z,98424.34
2018-08-24T04:27:20.617Z,98425.64
2018-08-24T04:29:49.690Z,98427.66
2018-08-24T04:32:18.194Z,98426.98
2018-08-24T04:34:46.805Z,98431.86
2018-08-24T04:37:15.667Z,98429.16
2018-08-24T04:39:44.213Z,98430.87
2018-08-24T04:42:12.768Z,98436.88
2018-08-24T04:44:41.318Z,98438.91
2018-08-24T04:47:09.835Z,98436.27
2018-08-24T04:49:38.335Z,98431.68
2018-08-24T04:52:08.360Z,98436.52
2018-08-24T04:54:36.902Z,98440.59
2018-08-24T04:57:06.098Z,98442.94
2018-08-24T04:59:34.672Z,98439.09
2018-08-24T05:02:03.521Z,98441.30
2018-08-24T05:04:32.060Z,98439.46
2018-08-24T05:07:00.605Z,98436.21
2018-08-24T05:09:29.124Z,98436.39
2018-08-24T05:11:57.663Z,98435.41
2018-08-24T05:14:26.625Z,98441.73
2018-08-24T05:16:55.186Z,98447.45
2018-08-24T05:19:23.709Z,98444.58
2018-08-24T05:21:52.250Z,98446.94
2018-08-24T05:24:20.783Z,98450.45
2018-08-24T05:26:49.778Z,98456.80
2018-08-24T05:29:18.306Z,98460.48
2018-08-24T05:31:47.073Z,98457.47
2018-08-24T05:34:15.601Z,98463.20
2018-08-24T05:36:44.153Z,98467.38
2018-08-24T05:39:12.678Z,98467.39
2018-08-24T05:41:41.566Z,98475.08
2018-08-24T05:44:10.498Z,98474.91
2018-08-24T05:46:39.070Z,98487.17
2018-08-24T05:49:07.910Z,98484.39
2018-08-24T05:51:36.498Z,98496.12
2018-08-24T05:54:05.049Z,98504.03
2018-08-24T05:56:33.623Z,98514.41
2018-08-24T05:59:03.062Z,98515.42
2018-08-24T06:01:31.624Z,98515.94
2018-08-24T06:04:00.160Z,98521.63
2018-08-24T06:06:28.675Z,98523.99
2018-08-24T06:09:03.761Z,98521.80
2018-08-24T06:11:32.315Z,98532.53
2018-08-24T06:14:00.826Z,98529.52
2018-08-24T06:16:29.692Z,98528.69
2018-08-24T06:18:58.209Z,98533.86
2018-08-24T06:21:26.769Z,98535.37
2018-08-24T06:23:55.382Z,98535.91
2018-08-24T06:26:24.365Z,98531.20
2018-08-24T06:28:52.900Z,98539.25
2018-08-24T06:31:21.911Z,98532.85
2018-08-24T06:33:50.427Z,98537.05
2018-08-24T06:36:18.972Z,98547.79
2018-08-24T06:38:47.491Z,98547.63
2018-08-24T06:41:16.053Z,98544.44
2018-08-24T06:43:45.374Z,98543.26
2018-08-24T06:46:13.945Z,98552.16
2018-08-24T06:48:42.457Z,98552.80
2018-08-24T06:51:11.037Z,98556.70
2018-08-24T06:53:39.612Z,98551.67
2018-08-24T06:56:08.962Z,98553.70
2018-08-24T06:58:37.489Z,98557.88
2018-08-24T07:01:06.172Z,98559.04
2018-08-24T07:03:34.709Z,98547.64
2018-08-24T07:06:03.288Z,98563.27
2018-08-24T07:08:32.035Z,98558.22
2018-08-24T07:11:00.544Z,98556.03
2018-08-24T07:13:29.124Z,98561.89
2018-08-24T07:15:57.712Z,98570.30
2018-08-24T07:18:26.242Z,98571.82
2018-08-24T07:20:55.255Z,98576.16
2018-08-24T07:23:23.832Z,98578.01
2018-08-24T07:25:52.564Z,98578.03
2018-08-24T07:28:21.357Z,98580.06
2018-08-24T07:30:49.839Z,98578.20
2018-08-24T07:33:18.786Z,98584.27
2018-08-24T07:35:47.524Z,98582.87
2018-08-24T07:38:16.082Z,98582.41
2018-08-24T07:40:44.619Z,98581.55
2018-08-24T07:43:13.197Z,98584.75
2018-08-24T07:45:41.738Z,98595.64
2018-08-24T07:48:10.285Z,98598.50
2018-08-24T07:50:38.813Z,98601.18
2018-08-24T07:53:07.811Z,98603.35
2018-08-24T07:55:36.602Z,98599.48
2018-08-24T07:58:05.473Z,98609.70
2018-08-24T08:00:34.051Z,98607.36
2018-08-24T08:03:02.599Z,98598.30
2018-08-24T08:05:31.233Z,98600.45
2018-08-24T08:08:00.686Z,98603.12
2018-08-24T08:10:33.666Z,98611.41
2018-08-24T08:13:02.961Z,98615.06
2018-08-24T08:15:33.022Z,98621.39
2018-08-24T08:18:01.593Z,98641.13
2018-08-24T08:20:30.116Z,98640.39
2018-08-24T08:22:58.952Z,98633.47
2018-08-24T08:25:27.489Z,98632.47
2018-08-24T08:27:56.058Z,98629.45
2018-08-24T08:30:24.559Z,98627.17
2018-08-24T08:32:53.249Z,98635.94
2018-08-24T08:35:22.794Z,98628.95
2018-08-24T08:37:52.152Z,98628.78
2018-08-24T08:40:22.177Z,98634.09
2018-08-24T08:42:51.435Z,98638.71
2018-08-24T08:45:20.986Z,98633.34
2018-08-24T08:47:49.507Z,98640.53
2018-08-24T08:50:18.546Z,98642.23
2018-08-24T08:52:48.663Z,98648.44
2018-08-24T08:55:17.184Z,98644.16
2018-08-24T08:57:46.617Z,98644.89
2018-08-24T09:00:15.129Z,98651.34
2018-08-24T09:02:47.516Z,98643.83
2018-08-24T09:05:16.040Z,98649.88
2018-08-24T09:07:46.780Z,98659.22
2018-08-24T09:10:15.752Z,98650.35
2018-08-24T09:12:44.624Z,98657.38
2018-08-24T09:15:13.157Z,98668.13
2018-08-24T09:17:47.628Z,98662.89
2018-08-24T09:20:21.323Z,98667.05
2018-08-24T09:22:55.285Z,98676.52
2018-08-24T09:25:29.257Z,98673.23
2018-08-24T09:28:03.273Z,98685.11
2018-08-24T09:30:37.740Z,98684.50
2018-08-24T09:33:06.312Z,98684.58
2018-08-24T09:35:35.652Z,98677.47
2018-08-24T09:38:05.611Z,98677.61
2018-08-24T09:40:39.496Z,98681.13
2018-08-24T09:43:13.154Z,98687.30
2018-08-24T09:45:41.693Z,98673.07
2018-08-24T09:48:16.603Z,98676.53
2018-08-24T09:50:50.253Z,98684.23
2018-08-24T09:53:24.297Z,98681.24
2018-08-24T09:55:53.506Z,98682.60
2018-08-24T09:58:23.150Z,98682.02
2018-08-24T10:01:01.074Z,98685.91
2018-08-24T10:03:34.945Z,98682.74
2018-08-24T10:06:08.590Z,98688.17
2018-08-24T10:08:42.660Z,98686.28
2018-08-24T10:11:11.191Z,98688.30
2018-08-24T10:13:39.765Z,98682.02
2018-08-24T10:16:08.398Z,98685.25
2018-08-24T10:18:37.213Z,98686.39
2018-08-24T10:21:05.750Z,98684.52
2018-08-24T10:23:34.838Z,98673.86
2018-08-24T10:26:03.391Z,98674.73
2018-08-24T10:28:32.136Z,98676.05
2018-08-24T10:31:00.726Z,98670.73
2018-08-24T10:33:29.259Z,98662.66
2018-08-24T10:35:57.801Z,98667.27
2018-08-24T10:38:26.452Z,98668.72
2018-08-24T10:40:55.103Z,98667.84
2018-08-24T10:43:23.552Z,98669.45
2018-08-24T10:45:52.111Z,98661.77
2018-08-24T10:48:20.646Z,98662.54
2018-08-24T10:50:50.216Z,98660.67
2018-08-24T10:53:18.731Z,98659.55
2018-08-24T10:55:47.365Z,98647.56
2018-08-24T10:58:15.828Z,98647.88
2018-08-24T11:00:44.385Z,98653.87
2018-08-24T11:03:13.329Z,98655.87
2018-08-24T11:05:41.889Z,98643.55
2018-08-24T11:08:10.401Z,98639.36
2018-08-24T11:10:39.697Z,98633.02
2018-08-24T11:13:08.516Z,98641.48
2018-08-24T11:15:37.948Z,98641.45
2018-08-24T11:18:08.753Z,98634.16
2018-08-24T11:20:39.029Z,98628.42
2018-08-24T11:23:08.099Z,98623.55
2018-08-24T11:25:37.045Z,98616.17
2018-08-24T11:28:06.490Z,98615.11
2018-08-24T11:30:35.025Z,98616.64
2018-08-24T11:33:03.572Z,98610.75
2018-08-24T11:35:32.218Z,98611.31
2018-08-24T11:38:01.934Z,98613.31
2018-08-24T11:40:30.470Z,98603.17
2018-08-24T11:43:00.782Z,98613.95
2018-08-24T11:45:30.159Z,98603.24
2018-08-24T11:47:58.939Z,98615.03
2018-08-24T11:50:27.477Z,98623.73
2018-08-24T11:52:56.059Z,98609.78
2018-08-24T11:55:24.592Z,98606.09
2018-08-24T11:57:53.149Z,98607.92
2018-08-24T12:00:26.037Z,98605.47
2018-08-24T12:02:56.139Z,98599.73
2018-08-24T12:05:24.673Z,98608.86
2018-08-24T12:07:53.265Z,98608.55
2018-08-24T12:10:22.212Z,98603.10
2018-08-24T12:12:50.783Z,98602.39
2018-08-24T12:15:19.697Z,98614.28
2018-08-24T12:17:48.285Z,98602.19
2018-08-24T12:20:17.017Z,98595.22
2018-08-24T12:22:45.888Z,98607.09
2018-08-24T12:25:14.661Z,98604.63
2018-08-24T12:27:43.239Z,98593.98
2018-08-24T12:30:11.775Z,98588.22
2018-08-24T12:32:41.110Z,98586.02
2018-08-24T12:35:09.606Z,98584.69
2018-08-24T12:37:43.406Z,98582.89
2018-08-24T12:40:12.004Z,98580.73
2018-08-24T12:42:41.300Z,98581.94
2018-08-24T12:45:09.886Z,98582.04
2018-08-24T12:47:38.672Z,98578.32
2018-08-24T12:50:07.888Z,98567.99
2018-08-24T12:52:37.254Z,98583.67
2018-08-24T12:55:06.858Z,98580.71
2018-08-24T12:57:36.059Z,98573.29
2018-08-24T13:00:04.796Z,98578.77
2018-08-24T13:02:33.312Z,98572.07
2018-08-24T13:05:02.565Z,98570.44
2018-08-24T13:07:31.936Z,98570.47
2018-08-24T13:10:00.696Z,98575.47
2018-08-24T13:12:29.223Z,98567.50
2018-08-24T13:14:58.331Z,98556.45
2018-08-24T13:17:26.969Z,98576.70
2018-08-24T13:19:56.200Z,98561.61
2018-08-24T13:22:24.758Z,98563.83
2018-08-24T13:24:54.251Z,98554.48
2018-08-24T13:27:23.685Z,98556.28
2018-08-24T13:29:52.216Z,98563.36
2018-08-24T13:32:20.841Z,98547.59
2018-08-24T13:34:49.373Z,98554.80
2018-08-24T13:37:18.549Z,98562.53
2018-08-24T13:39:47.508Z,98545.87
2018-08-24T13:42:16.913Z,98560.73
2018-08-24T13:44:45.654Z,98552.55
2018-08-24T13:47:14.223Z,98564.78
2018-08-24T13:49:42.744Z,98550.02
2018-08-24T13:52:11.557Z,98548.23
2018-08-24T13:54:40.667Z,98548.88
2018-08-24T13:57:09.815Z,98555.75
2018-08-24T13:59:38.715Z,98553.42
2018-08-24T14:02:07.273Z,98558.33
2018-08-24T14:04:35.827Z,98572.41
2018-08-24T14:07:04.605Z,98558.92
2018-08-24T14:09:33.992Z,98551.84
2018-08-24T14:12:02.886Z,98549.29
2018-08-24T14:14:31.415Z,98557.02
2018-08-24T14:16:59.962Z,98553.77
2018-08-24T14:19:29.049Z,98553.77
2018-08-24T14:21:57.599Z,98549.39
2018-08-24T14:24:26.162Z,98547.70
2018-08-24T14:26:55.193Z,98549.12
2018-08-24T14:29:23.756Z,98549.22
2018-08-24T14:31:53.295Z,98533.03
2018-08-24T14:34:21.893Z,98536.80
2018-08-24T14:36:50.782Z,98537.48
2018-08-24T14:39:20.023Z,98533.08
2018-08-24T14:41:48.527Z,98537.34
2018-08-24T14:44:17.712Z,98542.25
2018-08-24T14:46:47.125Z,98535.71
2018-08-24T14:49:16.253Z,98543.41
2018-08-24T14:51:46.431Z,98539.70
2018-08-24T14:54:15.254Z,98541.78
2018-08-24T14:56:43.812Z,98530.79
2018-08-24T14:59:12.357Z,98529.16
2018-08-24T15:01:40.899Z,98527.92
2018-08-24T15:04:09.458Z,98531.41
2018-08-24T15:06:38.510Z,98531.93
2018-08-24T15:09:09.141Z,98533.95
2018-08-24T15:11:38.137Z,98527.22
2018-08-24T15:14:07.247Z,98532.78
2018-08-24T15:16:36.676Z,98546.16
2018-08-24T15:19:05.409Z,98532.20
2018-08-24T15:21:34.688Z,98532.91
2018-08-24T15:24:05.516Z,98531.64
2018-08-24T15:26:34.174Z,98528.44
2018-08-24T15:29:02.777Z,98522.20
2018-08-24T15:31:36.921Z,98531.67
2018-08-24T15:34:10.468Z,98527.68
2018-08-24T15:36:43.733Z,98529.87
2018-08-24T15:39:20.572Z,98527.06
2018-08-24T15:41:54.140Z,98529.58
2018-08-24T15:44:27.633Z,98539.31
2018-08-24T15:46:58.419Z,98520.78
2018-08-24T15:49:27.054Z,98547.95
2018-08-24T15:51:55.701Z,98532.31
2018-08-24T15:54:24.264Z,98525.69
2018-08-24T15:56:52.803Z,98530.03
2018-08-24T15:59:21.371Z,98520.36
2018-08-24T16:01:49.889Z,98524.72
2018-08-24T16:04:18.431Z,98529.27
2018-08-24T16:06:47.364Z,98519.22
2018-08-24T16:09:22.545Z,98510.76
2018-08-24T16:11:55.153Z,98512.72
2018-08-24T16:14:27.522Z,98511.41
2018-08-24T16:16:56.030Z,98505.95
2018-08-24T16:19:24.783Z,98515.33
2018-08-24T16:21:59.714Z,98527.12
2018-08-24T16:24:28.303Z,98521.80
2018-08-24T16:26:56.807Z,98528.11
2018-08-24T16:29:26.178Z,98527.47
2018-08-24T16:31:55.402Z,98522.97
2018-08-24T16:34:23.941Z,98530.42
2018-08-24T16:36:52.545Z,98532.63
2018-08-24T16:39:21.046Z,98529.02
2018-08-24T16:41:50.835Z,98523.48
2018-08-24T16:44:19.395Z,98527.39
2018-08-24T16:46:47.978Z,98526.42
2018-08-24T16:49:16.487Z,98526.04
2018-08-24T16:51:44.986Z,98524.33
2018-08-24T16:54:14.002Z,98530.81
2018-08-24T16:56:43.365Z,98533.42
2018-08-24T16:59:12.191Z,98538.68
2018-08-24T17:01:40.815Z,98534.22
2018-08-24T17:04:24.311Z,98539.59
2018-08-24T17:06:53.603Z,98538.76
2018-08-24T17:09:28.434Z,98544.36
2018-08-24T17:11:57.345Z,98546.54
2018-08-24T17:14:25.897Z,98539.13
2018-08-24T17:16:54.416Z,98547.56
2018-08-24T17:19:23.030Z,98543.53
2018-08-24T17:21:51.826Z,98549.59
2018-08-24T17:24:20.394Z,98547.77
2018-08-24T17:26:48.978Z,98542.94
2018-08-24T17:29:18.258Z,98541.73
2018-08-24T17:31:47.014Z,98544.42
2018-08-24T17:34:15.556Z,98547.83
2018-08-24T17:36:44.084Z,98541.47
2018-08-24T17:39:14.105Z,98542.51
2018-08-24T17:41:42.629Z,98540.98
2018-08-24T17:44:12.121Z,98535.83
2018-08-24T17:46:41.053Z,98539.00
2018-08-24T17:49:09.602Z,98546.73
2018-08-24T17:51:38.278Z,98546.08
2018-08-24T17:54:07.881Z,98546.91
2018-08-24T17:56:36.444Z,98543.20
2018-08-24T17:59:05.185Z,98543.22
2018-08-24T18:01:35.514Z,98544.56
2018-08-24T18:04:04.074Z,98553.14
2018-08-24T18:06:33.090Z,98554.34
2018-08-24T18:09:01.626Z,98554.33
2018-08-24T18:11:30.427Z,98551.50
2018-08-24T18:13:58.972Z,98557.05
2018-08-24T18:16:27.753Z,98555.17
2018-08-24T18:18:56.321Z,98566.11
2018-08-24T18:21:25.606Z,98563.92
2018-08-24T18:23:54.150Z,98566.95
2018-08-24T18:26:22.729Z,98559.38
2018-08-24T18:28:51.311Z,98570.64
2018-08-24T18:31:20.612Z,98570.13
2018-08-24T18:33:50.521Z,98569.63
2018-08-24T18:36:20.214Z,98561.91
2018-08-24T18:38:49.062Z,98560.23
2018-08-24T18:41:17.608Z,98561.57
2018-08-24T18:43:46.806Z,98553.70
2018-08-24T18:46:15.348Z,98565.45
2018-08-24T18:48:43.964Z,98568.28
2018-08-24T18:51:12.782Z,98577.00
2018-08-24T18:53:41.328Z,98582.20
2018-08-24T18:56:10.476Z,98584.89
2018-08-24T18:58:38.998Z,98592.59
2018-08-24T19:01:08.534Z,98599.32
2018-08-24T19:03:37.643Z,98604.52
2018-08-24T19:06:06.216Z,98603.19
2018-08-24T19:08:35.164Z,98600.50
2018-08-24T19:11:09.445Z,98608.19
2018-08-24T19:13:38.009Z,98607.52
2018-08-24T19:16:07.009Z,98611.36
2018-08-24T19:18:40.951Z,98614.37
2018-08-24T19:21:15.122Z,98613.98
2018-08-24T19:23:43.645Z,98609.56
2018-08-24T19:26:13.325Z,98614.09
2018-08-24T19:28:46.917Z,98609.56
2018-08-24T19:31:15.748Z,98614.39
2018-08-24T19:33:44.285Z,98624.45
2018-08-24T19:36:12.877Z,98632.62
2018-08-24T19:38:41.714Z,98632.95
2018-08-24T19:41:15.656Z,98637.64
2018-08-24T19:43:44.606Z,98629.05
2018-08-24T19:46:13.450Z,98632.91
2018-08-24T19:48:47.128Z,98635.42
2018-08-24T19:51:17.020Z,98630.77
2018-08-24T19:53:45.554Z,98630.23
2018-08-24T19:56:14.425Z,98634.75
2018-08-24T19:58:48.734Z,98633.12
2018-08-24T20:01:17.290Z,98633.12
2018-08-24T20:03:46.276Z,98634.42
2018-08-24T20:06:20.243Z,98634.20
2018-08-24T20:08:54.323Z,98637.27
2018-08-24T20:11:23.031Z,98638.09
2018-08-24T20:13:51.565Z,98641.19
2018-08-24T20:16:25.399Z,98638.34
2018-08-24T20:18:53.929Z,98644.70
2018-08-24T20:21:22.781Z,98642.52
2018-08-24T20:23:51.295Z,98646.54
2018-08-24T20:26:20.612Z,98637.48
2018-08-24T20:28:49.445Z,98638.62
2018-08-24T20:31:18.569Z,98637.61
2018-08-24T20:33:47.555Z,98640.22
2018-08-24T20:36:16.090Z,98642.41
2018-08-24T20:38:44.618Z,98645.26
2018-08-24T20:41:13.400Z,98638.20
2018-08-24T20:43:41.926Z,98641.23
2018-08-24T20:46:10.475Z,98640.11
2018-08-24T20:48:39.005Z,98645.84
2018-08-24T20:51:08.067Z,98644.62
2018-08-24T20:53:37.850Z,98649.02
2018-08-24T20:56:06.865Z,98654.22
2018-08-24T20:58:36.661Z,98652.70
2018-08-24T21:01:05.940Z,98647.28
2018-08-24T21:03:35.029Z,98647.62
2018-08-24T21:06:04.765Z,98641.27
2018-08-24T21:08:33.290Z,98641.42
2018-08-24T21:11:01.834Z,98646.00
2018-08-24T21:13:30.710Z,98639.03
2018-08-24T21:16:00.253Z,98642.05
2018-08-24T21:18:29.330Z,98642.72
2018-08-24T21:20:58.611Z,98640.65
2018-08-24T21:23:27.230Z,98647.23
2018-08-24T21:25:56.003Z,98647.77
2018-08-24T21:28:24.583Z,98648.19
2018-08-24T21:30:53.545Z,98632.92
2018-08-24T21:33:22.877Z,98634.21
2018-08-24T21:35:51.423Z,98630.25
2018-08-24T21:38:20.037Z,98630.98
2018-08-24T21:40:49.603Z,98636.41
2018-08-24T21:43:18.258Z,98630.30
2018-08-24T21:45:46.808Z,98624.30
2018-08-24T21:48:16.325Z,98625.00
2018-08-24T21:50:45.292Z,98623.05
2018-08-24T21:53:13.851Z,98631.83
2018-08-24T21:55:42.766Z,98633.62
2018-08-24T21:58:11.333Z,98633.95
2018-08-24T22:00:41.527Z,98624.48
2018-08-24T22:03:11.101Z,98623.27
2018-08-24T22:05:39.977Z,98622.33
2018-08-24T22:08:08.610Z,98627.55
2018-08-24T22:10:37.929Z,98629.60
2018-08-24T22:13:06.527Z,98630.22
2018-08-24T22:15:35.506Z,98631.38
2018-08-24T22:18:04.291Z,98632.15
2018-08-24T22:20:32.820Z,98627.13
2018-08-24T22:23:01.437Z,98625.12
2018-08-24T22:25:29.965Z,98626.02
2018-08-24T22:27:58.557Z,98623.91
2018-08-24T22:30:27.521Z,98623.55
2018-08-24T22:32:57.570Z,98624.34
2018-08-24T22:35:26.112Z,98626.52
2018-08-24T22:37:54.669Z,98621.45
2018-08-24T22:40:23.218Z,98628.44
2018-08-24T22:42:51.822Z,98626.13
2018-08-24T22:45:21.116Z,98623.91
2018-08-24T22:47:49.887Z,98622.04
2018-08-24T22:50:18.387Z,98620.58
2018-08-24T22:52:46.928Z,98625.79
2018-08-24T22:55:16.450Z,98621.65
2018-08-24T22:57:45.097Z,98618.66
2018-08-24T23:00:13.869Z,98620.66
2018-08-24T23:02:42.844Z,98618.61
2018-08-24T23:05:11.710Z,98617.03
2018-08-24T23:07:41.040Z,98616.23
2018-08-24T23:10:10.832Z,98610.86
2018-08-24T23:12:39.781Z,98603.48
2018-08-24T23:15:09.152Z,98600.83
2018-08-24T23:17:37.754Z,98599.55
2018-08-24T23:20:06.367Z,98598.01
2018-08-24T23:22:35.248Z,98597.35
2018-08-24T23:25:04.069Z,98598.50
2018-08-24T23:27:32.862Z,98603.55
2018-08-24T23:30:01.402Z,98607.84
2018-08-24T23:32:30.026Z,98600.80
2018-08-24T23:34:59.689Z,98593.45
2018-08-24T23:37:28.245Z,98593.55
2018-08-24T23:39:56.765Z,98596.20
2018-08-24T23:42:25.318Z,98593.71
2018-08-24T23:44:53.851Z,98592.61
2018-08-24T23:47:23.587Z,98592.67
2018-08-24T23:49:52.556Z,98594.94
2018-08-24T23:52:21.325Z,98600.23
2018-08-24T23:54:49.921Z,98594.14
2018-08-24T23:57:18.941Z,98602.56
2018-08-24T23:59:48.137Z,98590.94
